Margrethe Maersk — OWYZ2 — position and weather

sailwx.info

Track history (hours):
 
Tides and Currents Weather Stations Pressure Air Temp Water Temp Dewpoint Dewpoint Depression Visibility Wind Speed Wind Dir Waves Ship Positions

Margrethe Maersk

Last reported at 2017-Dec-14 11:52 UTC. Time now 2017-Dec-15 18:06 UTC.
Position N 40°01' W 009°51'.

Length 399 m; draft 13 m.

Type: Ship (hazmat cat A). MMSI: 219629000.

Date/timePositionNaut miles runAvg speedWind from/ knotsBaromVisibWave heightAir tempDewpointWater temp
2017-Dec-14 11:52N 40°01' W 009°51'1619.6
2017-Dec-14 11:02N 39°45' W 009°51'219.5
2017-Dec-14 10:56N 39°43' W 009°51'819.4
2017-Dec-14 10:30N 39°34' W 009°51'1019.3
2017-Dec-14 10:00N 39°25' W 009°51'1019.4
2017-Dec-14 09:30N 39°15' W 009°52'1019.3
2017-Dec-14 09:01N 39°05' W 009°52'1019.4
2017-Dec-14 08:31N 38°56' W 009°51'1019.5
2017-Dec-14 08:00N 38°46' W 009°51'1019.4
2017-Dec-14 07:30N 38°36' W 009°49'1019.6
2017-Dec-14 07:00N 38°27' W 009°47'1019.4
2017-Dec-14 06:31N 38°17' W 009°44'1019.5
2017-Dec-14 06:00N 38°08' W 009°42'1019.9
2017-Dec-14 05:31N 37°58' W 009°38'1020.1
2017-Dec-14 05:00N 37°48' W 009°36'1020.1
2017-Dec-14 04:30N 37°38' W 009°33'1019.9
2017-Dec-14 03:59N 37°28' W 009°30'3520.1
2017-Dec-14 02:16N 36°55' W 009°20'1119.7
2017-Dec-14 01:43N 36°46' W 009°12'519.8
2017-Dec-14 01:28N 36°44' W 009°06'1020.0
2017-Dec-14 00:59N 36°41' W 008°55'1020.2
2017-Dec-14 00:30N 36°38' W 008°43'1020.4
2017-Dec-14 00:00N 36°35' W 008°31'1020.0
2017-Dec-13 23:30N 36°32' W 008°19'13820.0
2017-Dec-13 16:38N 35°57' W 005°34'218.3
2017-Dec-13 16:30N 35°58' W 005°31'918.3
2017-Dec-13 16:00N 36°01' W 005°20'20420.2
2017-Dec-13 05:54N 36°36' W 001°10'820.6
2017-Dec-13 05:31N 36°37' W 001°01'1020.7
2017-Dec-13 05:01N 36°39' W 000°48'1020.7
2017-Dec-13 04:31N 36°41' W 000°35'1020.6
2017-Dec-13 04:00N 36°43' W 000°23'67219.1
2017-Dec-11 16:50N 36°37' E 013°35'719.4
2017-Dec-11 16:30N 36°34' E 013°42'1019.4
2017-Dec-11 16:00N 36°30' E 013°54'1019.5
2017-Dec-11 15:30N 36°27' E 014°05'1019.3
2017-Dec-11 15:00N 36°23' E 014°16'919.5
2017-Dec-11 14:31N 36°20' E 014°27'1018.9
2017-Dec-11 14:00N 36°16' E 014°38'1121.0
2017-Dec-11 13:30N 36°13' E 014°50'  
Track history (hours):
 
Tides and Currents Weather Stations Pressure Air Temp Water Temp Dewpoint Dewpoint Depression Visibility Wind Speed Wind Dir Waves Ship Positions

Margrethe Maersk

Last reported at 2017-Dec-14 11:52 UTC. Time now 2017-Dec-15 18:06 UTC.
Position N 40°01' W 009°51'.

Length 399 m; draft 13 m.

Type: Ship (hazmat cat A). MMSI: 219629000.

Date/timePositionNaut miles runAvg speedWind from/ knotsBaromVisibWave heightAir tempDewpointWater temp
2017-Dec-14 11:52N 40°01' W 009°51'1619.6
2017-Dec-14 11:02N 39°45' W 009°51'219.5
2017-Dec-14 10:56N 39°43' W 009°51'819.4
2017-Dec-14 10:30N 39°34' W 009°51'1019.3
2017-Dec-14 10:00N 39°25' W 009°51'1019.4
2017-Dec-14 09:30N 39°15' W 009°52'1019.3
2017-Dec-14 09:01N 39°05' W 009°52'1019.4
2017-Dec-14 08:31N 38°56' W 009°51'1019.5
2017-Dec-14 08:00N 38°46' W 009°51'1019.4
2017-Dec-14 07:30N 38°36' W 009°49'1019.6
2017-Dec-14 07:00N 38°27' W 009°47'1019.4
2017-Dec-14 06:31N 38°17' W 009°44'1019.5
2017-Dec-14 06:00N 38°08' W 009°42'1019.9
2017-Dec-14 05:31N 37°58' W 009°38'1020.1
2017-Dec-14 05:00N 37°48' W 009°36'1020.1
2017-Dec-14 04:30N 37°38' W 009°33'1019.9
2017-Dec-14 03:59N 37°28' W 009°30'3520.1
2017-Dec-14 02:16N 36°55' W 009°20'1119.7
2017-Dec-14 01:43N 36°46' W 009°12'519.8
2017-Dec-14 01:28N 36°44' W 009°06'1020.0
2017-Dec-14 00:59N 36°41' W 008°55'1020.2
2017-Dec-14 00:30N 36°38' W 008°43'1020.4
2017-Dec-14 00:00N 36°35' W 008°31'1020.0
2017-Dec-13 23:30N 36°32' W 008°19'13820.0
2017-Dec-13 16:38N 35°57' W 005°34'218.3
2017-Dec-13 16:30N 35°58' W 005°31'918.3
2017-Dec-13 16:00N 36°01' W 005°20'20420.2
2017-Dec-13 05:54N 36°36' W 001°10'820.6
2017-Dec-13 05:31N 36°37' W 001°01'1020.7
2017-Dec-13 05:01N 36°39' W 000°48'1020.7
2017-Dec-13 04:31N 36°41' W 000°35'1020.6
2017-Dec-13 04:00N 36°43' W 000°23'67219.1
2017-Dec-11 16:50N 36°37' E 013°35'719.4
2017-Dec-11 16:30N 36°34' E 013°42'1019.4
2017-Dec-11 16:00N 36°30' E 013°54'1019.5
2017-Dec-11 15:30N 36°27' E 014°05'1019.3
2017-Dec-11 15:00N 36°23' E 014°16'919.5
2017-Dec-11 14:31N 36°20' E 014°27'1018.9
2017-Dec-11 14:00N 36°16' E 014°38'1121.0
2017-Dec-11 13:30N 36°13' E 014°50'  

Dump ship's entire track history